Time;durP1;ratioP1;P1;durP2;ratioP2;P2;SDS_P1;SDS_P2;PMS_P1;PMS_P2;Temp;Humidity;BMP_temperature;BMP_pressure;BME280_temperature;BME280_humidity;BME280_pressure;Samples;Min_cycle;Max_cycle;Signal;HPM_P1;HPM_P2
2021/07/26 00:00:50;;;;;;;15.15;10.90;;;;;;;22.57;92.96;100293.53;4982795;28;20043;-75
2021/07/26 00:03:16;;;;;;;14.98;10.90;;;;;;;22.54;92.68;100299.91;4980372;28;20121;-75
2021/07/26 00:05:41;;;;;;;16.20;10.45;;;;;;;22.45;93.26;100303.31;4989692;28;20109;-75
2021/07/26 00:08:07;;;;;;;13.95;10.30;;;;;;;22.27;94.26;100305.13;4990006;28;20038;-75
2021/07/26 00:10:34;;;;;;;15.88;11.15;;;;;;;22.43;93.43;100299.50;4985641;28;20054;-75
2021/07/26 00:13:01;;;;;;;17.65;11.10;;;;;;;22.43;93.33;100303.00;4984659;28;20494;-75
2021/07/26 00:15:28;;;;;;;14.95;10.32;;;;;;;22.25;94.18;100302.06;4972172;28;20042;-76
2021/07/26 00:17:54;;;;;;;16.80;11.13;;;;;;;22.23;94.42;100304.47;4985700;28;20503;-75
2021/07/26 00:20:20;;;;;;;14.88;10.80;;;;;;;21.91;96.08;100302.03;4982742;28;20437;-76
2021/07/26 00:22:46;;;;;;;15.85;11.23;;;;;;;22.17;94.85;100303.50;5013260;23;20046;-75
2021/07/26 00:25:12;;;;;;;14.77;10.73;;;;;;;22.32;94.01;100296.34;5001594;28;22124;-75
2021/07/26 00:27:38;;;;;;;14.85;10.95;;;;;;;22.29;94.27;100303.50;5005395;28;20042;-75
2021/07/26 00:30:04;;;;;;;18.55;11.10;;;;;;;22.27;94.32;100305.91;5007571;28;20036;-75
2021/07/26 00:32:29;;;;;;;14.82;10.63;;;;;;;22.29;94.11;100292.50;5009918;28;20029;-75
2021/07/26 00:34:58;;;;;;;15.73;11.30;;;;;;;22.18;94.55;100305.06;5025151;28;20041;-75
2021/07/26 00:37:26;;;;;;;17.77;11.40;;;;;;;22.22;94.42;100300.22;5010867;28;20064;-75
2021/07/26 00:39:52;;;;;;;15.00;10.75;;;;;;;22.21;94.07;100295.91;5024226;28;20487;-75
2021/07/26 00:42:18;;;;;;;17.05;10.93;;;;;;;21.85;95.91;100298.28;5010238;28;20045;-75
2021/07/26 00:44:43;;;;;;;15.85;11.05;;;;;;;22.01;95.12;100295.44;5010986;28;20502;-75
2021/07/26 00:47:09;;;;;;;16.30;10.90;;;;;;;22.09;94.91;100297.47;5004849;28;20037;-75
2021/07/26 00:49:35;;;;;;;15.55;11.18;;;;;;;22.06;95.30;100294.88;5022138;28;20042;-75
2021/07/26 00:52:00;;;;;;;16.85;11.18;;;;;;;22.13;95.11;100291.88;5026153;28;20037;-75
2021/07/26 00:54:36;;;;;;;16.15;11.20;;;;;;;21.96;95.35;100301.44;5010533;28;20038;-75
2021/07/26 00:57:06;;;;;;;18.25;11.15;;;;;;;22.00;95.15;100302.09;4992806;28;20120;-75
2021/07/26 00:59:32;;;;;;;16.55;10.63;;;;;;;22.15;94.09;100305.91;4997727;28;20065;-75
2021/07/26 01:01:58;;;;;;;13.57;10.02;;;;;;;22.36;92.87;100313.44;5025267;28;20521;-75
2021/07/26 01:04:25;;;;;;;16.02;9.65;;;;;;;22.55;90.20;100300.66;5011083;28;20034;-75
2021/07/26 01:06:50;;;;;;;16.08;10.88;;;;;;;22.40;90.84;100298.41;5010061;28;20044;-75
2021/07/26 01:09:16;;;;;;;15.55;11.15;;;;;;;22.45;90.63;100303.31;5025736;28;20433;-75
2021/07/26 01:11:42;;;;;;;15.82;10.93;;;;;;;22.13;92.63;100311.84;5025409;28;20042;-75
2021/07/26 01:14:08;;;;;;;14.38;10.45;;;;;;;22.12;92.91;100307.59;4992300;28;20049;-75
2021/07/26 01:16:34;;;;;;;14.98;11.20;;;;;;;22.09;93.03;100315.91;5009113;28;20030;-75
2021/07/26 01:19:01;;;;;;;18.63;12.23;;;;;;;22.01;93.34;100300.91;5003710;28;20030;-75
2021/07/26 01:21:27;;;;;;;17.25;11.38;;;;;;;21.90;94.44;100309.47;5003358;28;20498;-75
2021/07/26 01:23:53;;;;;;;18.58;11.40;;;;;;;21.85;94.83;100318.25;5001954;28;20125;-76
2021/07/26 01:26:21;;;;;;;19.13;12.13;;;;;;;21.89;94.70;100321.63;5001844;28;20118;-75
2021/07/26 01:28:52;;;;;;;18.65;12.63;;;;;;;22.01;93.76;100317.38;5014995;28;20030;-75
2021/07/26 01:31:19;;;;;;;17.67;12.50;;;;;;;21.95;94.32;100313.66;5013826;28;20034;-75
2021/07/26 01:33:47;;;;;;;18.48;12.70;;;;;;;21.87;94.71;100310.38;5022884;28;20033;-75
2021/07/26 01:36:13;;;;;;;21.08;12.73;;;;;;;21.90;94.97;100316.91;5012051;28;20042;-75
2021/07/26 01:38:39;;;;;;;17.42;11.70;;;;;;;21.99;94.34;100323.28;5013843;28;20064;-75
2021/07/26 01:41:07;;;;;;;16.83;12.68;;;;;;;21.91;95.14;100319.22;5024033;28;20038;-75
2021/07/26 01:43:35;;;;;;;17.77;12.57;;;;;;;21.83;95.37;100322.63;5012504;28;20052;-75
2021/07/26 01:46:10;;;;;;;19.45;13.18;;;;;;;21.85;95.29;100323.75;5007178;28;20529;-76
2021/07/26 01:48:49;;;;;;;17.83;13.18;;;;;;;21.78;95.42;100314.91;5005052;28;20088;-76
2021/07/26 01:51:23;;;;;;;30.15;12.52;;;;;;;21.55;96.55;100327.75;5007370;28;20029;-76
2021/07/26 01:53:49;;;;;;;18.80;13.13;;;;;;;21.45;97.43;100320.59;5021760;28;20026;-76
2021/07/26 01:56:15;;;;;;;17.48;12.80;;;;;;;21.51;97.39;100326.31;5013110;28;20018;-76
2021/07/26 01:58:42;;;;;;;18.95;13.13;;;;;;;21.42;97.86;100326.97;5013758;28;20037;-75
2021/07/26 02:01:08;;;;;;;18.33;13.88;;;;;;;21.60;96.67;100331.94;5006534;28;20045;-75
2021/07/26 02:03:34;;;;;;;17.25;13.05;;;;;;;21.62;96.87;100332.25;5005282;28;20448;-75
2021/07/26 02:05:59;;;;;;;18.17;13.15;;;;;;;21.55;97.36;100330.50;5011489;28;20042;-75
2021/07/26 02:08:24;;;;;;;19.30;13.07;;;;;;;21.65;97.05;100327.84;5013462;28;20620;-75
2021/07/26 02:10:50;;;;;;;18.95;12.95;;;;;;;21.59;96.76;100319.41;5001071;28;20053;-76
2021/07/26 02:13:15;;;;;;;19.15;14.10;;;;;;;21.61;96.67;100327.19;5013884;28;20103;-76
2021/07/26 02:15:41;;;;;;;19.30;13.77;;;;;;;21.62;97.19;100329.53;5012429;28;20042;-76
2021/07/26 02:18:07;;;;;;;18.80;13.25;;;;;;;21.63;96.70;100322.81;5012334;28;20371;-75
2021/07/26 02:20:32;;;;;;;18.80;13.65;;;;;;;21.58;97.69;100326.88;5004785;28;20558;-74
2021/07/26 02:22:58;;;;;;;23.52;14.15;;;;;;;21.51;98.17;100320.81;5013260;28;20038;-75
2021/07/26 02:25:23;;;;;;;21.70;14.38;;;;;;;21.60;97.74;100326.44;5008916;28;20398;-74
2021/07/26 02:27:49;;;;;;;18.38;13.73;;;;;;;21.41;98.58;100324.66;5021616;28;20077;-74
2021/07/26 02:30:15;;;;;;;17.95;13.43;;;;;;;21.44;98.77;100323.78;5017641;28;20037;-75
2021/07/26 02:32:43;;;;;;;22.25;13.95;;;;;;;21.43;98.54;100323.00;5026096;28;20121;-74
2021/07/26 02:35:09;;;;;;;21.73;13.85;;;;;;;21.32;98.88;100325.31;5002006;28;21006;-75
2021/07/26 02:37:34;;;;;;;19.35;13.63;;;;;;;21.30;99.05;100318.72;5012004;28;20037;-74
2021/07/26 02:40:00;;;;;;;19.30;14.20;;;;;;;21.41;98.29;100319.16;4999980;28;20402;-74
2021/07/26 02:42:26;;;;;;;20.67;14.52;;;;;;;21.26;98.44;100316.09;5008430;28;20363;-74
2021/07/26 02:44:51;;;;;;;19.45;13.80;;;;;;;21.21;99.23;100322.13;5005438;28;20026;-75
2021/07/26 02:47:17;;;;;;;19.38;14.43;;;;;;;21.23;99.78;100325.19;5024891;28;20771;-74
2021/07/26 02:49:43;;;;;;;20.45;14.00;;;;;;;21.33;99.01;100318.59;5003308;28;20437;-74
2021/07/26 02:52:09;;;;;;;21.23;14.30;;;;;;;21.23;99.49;100324.41;5011194;28;20029;-74
2021/07/26 02:54:34;;;;;;;20.17;13.40;;;;;;;21.08;100.00;100315.06;5002188;28;20500;-74
2021/07/26 02:56:59;;;;;;;20.23;14.27;;;;;;;21.04;100.00;100317.13;4998041;28;20030;-74
2021/07/26 02:59:25;;;;;;;20.90;14.40;;;;;;;20.89;100.00;100324.16;5010364;28;20121;-74
2021/07/26 03:01:53;;;;;;;19.20;13.95;;;;;;;20.90;100.00;100321.00;5009687;28;20099;-74
2021/07/26 03:04:18;;;;;;;22.90;15.32;;;;;;;20.94;100.00;100326.38;5008571;28;20088;-74
2021/07/26 03:06:44;;;;;;;22.65;14.40;;;;;;;20.96;100.00;100327.50;5012000;28;20030;-74
2021/07/26 03:09:09;;;;;;;20.30;13.75;;;;;;;20.99;100.00;100329.34;5027504;28;20107;-74
2021/07/26 03:11:38;;;;;;;21.25;13.45;;;;;;;20.87;100.00;100332.03;5012761;28;20034;-74
2021/07/26 03:14:04;;;;;;;22.30;14.35;;;;;;;20.99;100.00;100329.34;5009836;28;20068;-74
2021/07/26 03:16:29;;;;;;;21.40;15.10;;;;;;;20.94;100.00;100337.34;5011848;28;20452;-74
2021/07/26 03:18:55;;;;;;;21.35;15.20;;;;;;;20.80;100.00;100324.78;5009009;28;20510;-74
2021/07/26 03:21:20;;;;;;;21.55;15.50;;;;;;;20.67;100.00;100321.25;5012334;28;20057;-74
2021/07/26 03:23:46;;;;;;;23.55;14.68;;;;;;;20.87;100.00;100324.59;5008499;28;20042;-74
2021/07/26 03:26:12;;;;;;;17.98;13.70;;;;;;;20.91;100.00;100329.97;5009501;28;20115;-74
2021/07/26 03:28:38;;;;;;;21.60;14.98;;;;;;;20.90;100.00;100329.22;5003231;28;20026;-74
2021/07/26 03:31:03;;;;;;;19.52;14.80;;;;;;;20.81;100.00;100334.53;5002649;28;20069;-74
2021/07/26 03:33:29;;;;;;;19.83;13.85;;;;;;;20.92;100.00;100335.03;5011480;28;20402;-74
2021/07/26 03:35:54;;;;;;;21.33;14.88;;;;;;;20.98;100.00;100338.00;5007078;28;20151;-74
2021/07/26 03:38:21;;;;;;;20.63;14.65;;;;;;;21.04;100.00;100337.06;5010701;28;20431;-74
2021/07/26 03:40:48;;;;;;;22.15;15.27;;;;;;;21.00;100.00;100333.59;5007422;28;20026;-75
2021/07/26 03:43:13;;;;;;;20.75;15.30;;;;;;;20.94;100.00;100329.88;5007377;28;20112;-74
2021/07/26 03:45:39;;;;;;;25.67;15.70;;;;;;;20.95;100.00;100331.41;5000178;28;20519;-74
2021/07/26 03:48:04;;;;;;;20.92;14.95;;;;;;;20.96;100.00;100326.72;4997973;28;20053;-75
2021/07/26 03:50:30;;;;;;;26.77;16.08;;;;;;;20.85;100.00;100326.25;5011700;28;20042;-74
2021/07/26 03:52:57;;;;;;;20.00;15.15;;;;;;;20.90;100.00;100328.44;5004365;28;20076;-75
2021/07/26 03:55:24;;;;;;;21.83;16.42;;;;;;;20.93;100.00;100330.31;5009112;28;20096;-74
2021/07/26 03:57:50;;;;;;;23.05;15.27;;;;;;;20.86;100.00;100336.75;5019852;28;20487;-74
2021/07/26 04:00:17;;;;;;;25.95;15.52;;;;;;;21.07;100.00;100332.69;4997252;28;20120;-74
2021/07/26 04:02:47;;;;;;;20.45;14.75;;;;;;;21.01;100.00;100337.16;5009999;28;20030;-74
2021/07/26 04:05:36;;;;;;;22.67;15.75;;;;;;;21.07;100.00;100347.16;5008898;28;20339;-74
2021/07/26 04:08:47;;;;;;;22.38;15.48;;;;;;;21.12;100.00;100343.88;5004402;28;20030;-74
2021/07/26 04:11:15;;;;;;;22.35;16.15;;;;;;;21.13;100.00;100341.91;5007158;28;20137;-74
2021/07/26 04:13:41;;;;;;;21.73;15.57;;;;;;;21.06;100.00;100345.59;4998731;28;20049;-74
2021/07/26 04:16:07;;;;;;;21.90;16.50;;;;;;;20.94;100.00;100346.31;5020632;28;20038;-75
2021/07/26 04:18:33;;;;;;;20.45;15.07;;;;;;;21.05;100.00;100341.34;4999564;28;20036;-74
2021/07/26 04:21:00;;;;;;;23.50;15.13;;;;;;;21.16;100.00;100347.28;5011193;28;20048;-74
2021/07/26 04:23:25;;;;;;;23.77;15.40;;;;;;;21.33;100.00;100351.50;5002381;28;20040;-74
2021/07/26 04:25:51;;;;;;;22.92;15.35;;;;;;;21.37;100.00;100354.91;5009711;28;20041;-74
2021/07/26 04:28:17;;;;;;;20.17;15.43;;;;;;;21.49;100.00;100354.16;5007424;28;20036;-75
2021/07/26 04:30:42;;;;;;;20.10;14.63;;;;;;;21.62;100.00;100356.94;4998862;28;20465;-75
2021/07/26 04:33:09;;;;;;;21.00;15.55;;;;;;;21.64;100.00;100356.50;4997525;28;20060;-75
2021/07/26 04:35:35;;;;;;;19.08;14.27;;;;;;;21.65;100.00;100355.28;5009263;28;20068;-75
2021/07/26 04:38:01;;;;;;;21.63;15.80;;;;;;;21.70;100.00;100350.00;5000252;28;20042;-75
2021/07/26 04:40:26;;;;;;;26.20;15.55;;;;;;;21.79;100.00;100349.38;5009931;28;20042;-75
2021/07/26 04:42:53;;;;;;;22.88;15.55;;;;;;;21.79;100.00;100350.16;5002144;28;20686;-75
2021/07/26 04:45:19;;;;;;;21.40;15.13;;;;;;;21.85;100.00;100353.91;5008579;28;20038;-75
2021/07/26 04:47:44;;;;;;;21.35;15.52;;;;;;;21.87;100.00;100350.72;5001957;28;20026;-75
2021/07/26 04:50:10;;;;;;;23.50;16.35;;;;;;;21.95;100.00;100344.56;5009385;28;20096;-75
2021/07/26 04:52:35;;;;;;;22.42;16.08;;;;;;;22.02;100.00;100340.84;5009145;28;20065;-75
2021/07/26 04:55:01;;;;;;;23.40;16.48;;;;;;;22.06;100.00;100341.50;5009929;28;20057;-75
2021/07/26 04:57:26;;;;;;;21.67;16.13;;;;;;;22.15;100.00;100342.38;5003718;28;20044;-75
2021/07/26 04:59:52;;;;;;;23.10;16.55;;;;;;;22.14;100.00;100334.59;5009516;28;20430;-75
2021/07/26 05:02:17;;;;;;;27.42;16.48;;;;;;;22.17;100.00;100337.22;5010168;28;20045;-75
2021/07/26 05:04:43;;;;;;;23.45;16.88;;;;;;;22.16;100.00;100334.91;5014447;28;20505;-75
2021/07/26 05:07:08;;;;;;;28.05;18.02;;;;;;;22.16;100.00;100343.88;5005714;28;20053;-75
2021/07/26 05:09:38;;;;;;;27.90;16.77;;;;;;;22.19;100.00;100345.75;5005557;28;20034;-75
2021/07/26 05:12:07;;;;;;;23.08;17.33;;;;;;;22.22;100.00;100333.16;5017719;28;20084;-75
2021/07/26 05:14:32;;;;;;;26.55;17.30;;;;;;;22.26;100.00;100342.03;5003547;28;20033;-75
2021/07/26 05:16:58;;;;;;;22.42;17.45;;;;;;;22.22;100.00;100330.41;5000193;28;20514;-75
2021/07/26 05:19:23;;;;;;;27.15;17.98;;;;;;;22.24;100.00;100345.19;5004670;28;20386;-75
2021/07/26 05:21:49;;;;;;;24.20;18.02;;;;;;;22.26;100.00;100344.78;5009223;28;20069;-75
2021/07/26 05:24:14;;;;;;;26.13;18.17;;;;;;;22.29;100.00;100341.13;5009555;28;20046;-75
2021/07/26 05:26:40;;;;;;;26.30;17.45;;;;;;;22.43;100.00;100340.69;5005811;28;20038;-75
2021/07/26 05:29:05;;;;;;;24.70;18.08;;;;;;;22.38;99.81;100346.72;5007774;28;20082;-75
2021/07/26 05:31:31;;;;;;;26.08;17.92;;;;;;;22.54;100.00;100345.78;5024735;28;20026;-75
2021/07/26 05:33:56;;;;;;;23.67;17.45;;;;;;;22.67;100.00;100346.53;5006733;28;20120;-76
2021/07/26 05:36:24;;;;;;;24.33;16.83;;;;;;;22.80;99.00;100345.28;5008789;28;20042;-76
2021/07/26 05:38:52;;;;;;;21.23;16.40;;;;;;;23.38;97.35;100351.09;5021211;28;20100;-75
2021/07/26 05:41:18;;;;;;;26.15;15.45;;;;;;;23.91;95.26;100351.81;5010360;28;20050;-75
2021/07/26 05:43:44;;;;;;;22.13;15.38;;;;;;;24.00;93.51;100346.34;5008642;28;20036;-75
2021/07/26 05:46:10;;;;;;;19.90;15.05;;;;;;;23.93;92.57;100354.88;5008832;28;20041;-75
2021/07/26 05:48:36;;;;;;;19.67;14.18;;;;;;;23.82;93.08;100357.28;5008390;28;20034;-75
2021/07/26 05:51:03;;;;;;;21.90;15.10;;;;;;;23.77;94.15;100358.63;5007773;28;20041;-76
2021/07/26 05:53:29;;;;;;;20.48;14.77;;;;;;;23.71;94.19;100371.44;5002440;28;20042;-76
2021/07/26 05:55:54;;;;;;;18.40;13.98;;;;;;;23.50;95.08;100368.75;5009160;28;20073;-75
2021/07/26 05:58:20;;;;;;;22.63;14.25;;;;;;;23.49;95.28;100373.47;5021381;28;20045;-75
2021/07/26 06:00:56;;;;;;;22.00;15.15;;;;;;;23.51;94.58;100364.75;5001552;28;20041;-75
2021/07/26 06:03:22;;;;;;;22.63;14.70;;;;;;;23.49;94.64;100369.94;5003271;28;20060;-76
2021/07/26 06:05:48;;;;;;;19.65;14.45;;;;;;;23.56;94.81;100355.91;5001112;28;20025;-76
2021/07/26 06:08:13;;;;;;;25.95;15.23;;;;;;;23.56;95.32;100358.66;5008957;28;20038;-76
2021/07/26 06:10:39;;;;;;;19.55;14.55;;;;;;;23.63;95.15;100352.91;5004706;28;20041;-76
2021/07/26 06:13:05;;;;;;;20.08;14.90;;;;;;;23.83;94.31;100348.56;5009510;28;20494;-76
2021/07/26 06:15:30;;;;;;;21.13;15.65;;;;;;;24.13;93.73;100347.03;5011563;28;20080;-76
2021/07/26 06:17:56;;;;;;;22.25;14.73;;;;;;;24.76;92.26;100347.16;5027459;28;20091;-76
2021/07/26 06:20:22;;;;;;;20.92;14.13;;;;;;;25.26;83.61;100344.97;5008480;28;20124;-76
2021/07/26 06:22:47;;;;;;;19.75;13.68;;;;;;;25.72;84.01;100343.66;5011742;28;20435;-75
2021/07/26 06:25:13;;;;;;;18.63;12.93;;;;;;;26.21;82.21;100352.31;5011350;28;20038;-75
2021/07/26 06:27:42;;;;;;;20.75;12.95;;;;;;;26.51;77.79;100348.47;5012918;28;20060;-75
2021/07/26 06:30:08;;;;;;;17.65;12.35;;;;;;;26.38;76.90;100350.72;5007605;28;20030;-75
2021/07/26 06:32:35;;;;;;;15.27;11.50;;;;;;;26.49;77.51;100350.94;5012194;28;20533;-75
2021/07/26 06:35:01;;;;;;;16.20;11.60;;;;;;;26.74;77.66;100347.72;5009362;28;20036;-75
2021/07/26 06:37:26;;;;;;;15.48;11.50;;;;;;;26.89;75.80;100353.25;5016705;28;20029;-75
2021/07/26 06:39:52;;;;;;;16.15;11.70;;;;;;;26.91;74.78;100339.72;5010226;28;20042;-75
2021/07/26 06:42:18;;;;;;;20.08;11.45;;;;;;;26.73;77.76;100354.47;5010806;28;20111;-75
2021/07/26 06:44:44;;;;;;;15.80;11.90;;;;;;;26.96;79.19;100349.38;4993926;28;20025;-75
2021/07/26 06:47:10;;;;;;;17.02;11.68;;;;;;;27.13;76.26;100359.50;5005880;28;20092;-75
2021/07/26 06:49:35;;;;;;;14.95;11.35;;;;;;;27.24;75.82;100364.47;5011802;28;20120;-75
2021/07/26 06:52:02;;;;;;;16.63;10.82;;;;;;;27.35;76.25;100359.19;5011888;28;20036;-75
2021/07/26 06:54:28;;;;;;;14.07;10.18;;;;;;;27.39;75.04;100359.75;5012348;28;20045;-75
2021/07/26 06:56:53;;;;;;;15.50;10.82;;;;;;;27.51;74.42;100361.44;5010603;28;20482;-75
2021/07/26 06:59:19;;;;;;;11.82;9.77;;;;;;;27.63;71.71;100357.63;5010028;28;20038;-74
2021/07/26 07:01:45;;;;;;;12.98;9.63;;;;;;;27.73;70.89;100367.34;5011304;28;20065;-74
2021/07/26 07:04:10;;;;;;;13.73;9.82;;;;;;;27.84;70.73;100373.06;5009028;28;20022;-75
2021/07/26 07:06:35;;;;;;;11.38;9.02;;;;;;;27.87;70.43;100376.88;5005599;28;20022;-75
2021/07/26 07:09:01;;;;;;;12.50;8.95;;;;;;;27.78;71.60;100371.47;5008750;28;20541;-75
2021/07/26 07:11:26;;;;;;;13.80;10.10;;;;;;;27.71;72.10;100371.84;5010923;28;20076;-75
2021/07/26 07:13:52;;;;;;;10.40;8.38;;;;;;;27.68;71.89;100370.78;5008318;28;20092;-76
2021/07/26 07:16:20;;;;;;;11.20;8.55;;;;;;;27.71;71.06;100363.53;5002660;28;20029;-75
2021/07/26 07:18:47;;;;;;;11.70;9.00;;;;;;;27.80;71.09;100363.44;5007570;28;20064;-75
2021/07/26 07:21:20;;;;;;;11.15;8.25;;;;;;;27.93;71.88;100363.88;5011168;28;20034;-74
2021/07/26 07:23:46;;;;;;;10.30;8.38;;;;;;;28.09;69.84;100371.69;5006416;28;20447;-74
2021/07/26 07:26:13;;;;;;;10.48;7.97;;;;;;;28.23;68.18;100368.13;5006774;28;20064;-75
2021/07/26 07:28:38;;;;;;;11.23;8.57;;;;;;;28.29;68.54;100364.19;5010565;28;20092;-74
2021/07/26 07:31:04;;;;;;;13.40;8.18;;;;;;;28.35;67.36;100373.34;5011020;28;20029;-75
2021/07/26 07:33:29;;;;;;;11.82;8.43;;;;;;;28.25;68.55;100374.72;5009446;28;20560;-75
2021/07/26 07:35:55;;;;;;;11.20;7.18;;;;;;;28.26;68.89;100387.31;5009009;28;20530;-75
2021/07/26 07:38:20;;;;;;;9.57;6.88;;;;;;;28.10;68.48;100385.09;5010934;28;20030;-74
2021/07/26 07:40:47;;;;;;;10.52;7.47;;;;;;;27.90;70.10;100387.00;5005338;28;20105;-75
2021/07/26 07:43:13;;;;;;;11.88;7.82;;;;;;;27.67;68.33;100388.66;5011723;28;20073;-74
2021/07/26 07:45:38;;;;;;;9.32;7.60;;;;;;;27.54;69.42;100391.72;5008220;28;20030;-75
2021/07/26 07:48:04;;;;;;;10.95;7.22;;;;;;;27.42;71.14;100401.06;5021419;28;20486;-75
2021/07/26 07:50:30;;;;;;;10.07;7.30;;;;;;;27.35;71.74;100403.44;5009400;28;20033;-75
2021/07/26 07:52:56;;;;;;;10.73;7.30;;;;;;;27.15;71.69;100394.97;5011165;28;20084;-74
2021/07/26 07:55:21;;;;;;;17.90;7.88;;;;;;;27.06;72.46;100403.38;5006018;28;20030;-74
2021/07/26 07:57:51;;;;;;;15.05;7.60;;;;;;;26.75;73.32;100412.81;5003613;28;20113;-74
2021/07/26 08:00:17;;;;;;;11.85;7.43;;;;;;;26.55;73.09;100407.09;5004178;28;20552;-75
2021/07/26 08:02:43;;;;;;;10.05;7.15;;;;;;;26.53;74.73;100406.78;5008296;28;20113;-72
2021/07/26 08:05:08;;;;;;;8.82;6.82;;;;;;;26.37;73.57;100404.41;5008292;28;20124;-72
2021/07/26 08:07:34;;;;;;;12.32;7.45;;;;;;;26.42;74.04;100405.78;5010291;28;20014;-73
2021/07/26 08:10:00;;;;;;;12.85;6.90;;;;;;;26.29;73.62;100411.50;5010679;28;20398;-73
2021/07/26 08:12:25;;;;;;;10.75;7.10;;;;;;;26.08;75.29;100415.31;5009276;28;20065;-72
2021/07/26 08:14:50;;;;;;;9.27;7.05;;;;;;;26.02;76.82;100419.91;5022153;28;20030;-73
2021/07/26 08:17:16;;;;;;;11.88;7.20;;;;;;;25.84;76.18;100415.19;5010571;28;20517;-72
2021/07/26 08:19:41;;;;;;;11.60;6.85;;;;;;;25.76;77.24;100413.25;5010366;28;20040;-73
2021/07/26 08:22:07;;;;;;;11.13;7.20;;;;;;;25.73;78.64;100422.44;5007546;28;20025;-72
2021/07/26 08:24:32;;;;;;;8.93;6.88;;;;;;;25.69;77.84;100425.38;5011149;28;20525;-72
2021/07/26 08:26:58;;;;;;;9.52;6.10;;;;;;;25.65;79.04;100421.22;5010018;28;20221;-72
2021/07/26 08:29:23;;;;;;;9.45;6.75;;;;;;;25.66;82.19;100420.00;5009716;28;20021;-72
2021/07/26 08:31:48;;;;;;;9.70;6.85;;;;;;;25.57;82.59;100428.31;5009036;28;20064;-73
2021/07/26 08:34:14;;;;;;;10.90;6.78;;;;;;;25.44;80.67;100422.97;5009195;28;20037;-73
2021/07/26 08:36:40;;;;;;;9.25;6.55;;;;;;;25.43;82.33;100418.69;5010546;28;20033;-74
2021/07/26 08:39:05;;;;;;;10.57;6.95;;;;;;;25.16;83.56;100420.66;5008465;28;20041;-74
2021/07/26 08:41:30;;;;;;;8.77;6.90;;;;;;;24.98;85.61;100418.66;5004731;28;20088;-74
2021/07/26 08:43:56;;;;;;;11.30;6.75;;;;;;;24.94;87.09;100423.56;5010067;28;20042;-74
2021/07/26 08:46:22;;;;;;;9.80;6.97;;;;;;;24.97;87.90;100436.44;5010395;28;20044;-74
2021/07/26 08:48:48;;;;;;;9.52;6.68;;;;;;;24.90;86.99;100434.75;5025767;28;20033;-75
2021/07/26 08:51:19;;;;;;;8.77;6.28;;;;;;;24.93;87.80;100424.78;5010822;28;20120;-74
2021/07/26 08:53:48;;;;;;;9.82;6.88;;;;;;;24.89;88.83;100410.41;5010211;28;20108;-74
2021/07/26 08:56:16;;;;;;;8.27;6.30;;;;;;;24.65;89.28;100417.66;5009386;28;20466;-74
2021/07/26 08:58:42;;;;;;;8.95;6.47;;;;;;;24.60;91.19;100419.03;5007497;28;20081;-74
2021/07/26 09:01:11;;;;;;;9.45;6.97;;;;;;;24.52;92.62;100430.81;4999792;28;20443;-74
2021/07/26 09:03:36;;;;;;;10.98;6.72;;;;;;;24.47;90.28;100445.16;5006919;28;20139;-74
2021/07/26 09:06:02;;;;;;;14.02;6.88;;;;;;;24.28;90.56;100457.34;5009574;28;20046;-74
2021/07/26 09:08:35;;;;;;;9.15;5.95;;;;;;;24.17;91.43;100455.78;5010352;28;20034;-74
2021/07/26 09:11:02;;;;;;;8.75;6.30;;;;;;;24.18;90.27;100449.06;5010393;28;20099;-74
2021/07/26 09:13:39;;;;;;;9.52;6.63;;;;;;;24.07;91.44;100456.19;5001772;28;20168;-73
2021/07/26 09:16:19;;;;;;;10.23;6.25;;;;;;;23.80;93.52;100465.03;5000905;28;20065;-74
2021/07/26 09:18:46;;;;;;;9.57;6.68;;;;;;;23.89;93.20;100473.34;5010095;28;20056;-74
2021/07/26 09:21:12;;;;;;;7.35;6.20;;;;;;;23.71;93.85;100455.97;5010226;28;20033;-74
2021/07/26 09:24:01;;;;;;;8.65;5.85;;;;;;;23.65;94.50;100452.25;5025025;28;20556;-74
2021/07/26 09:26:27;;;;;;;9.45;6.05;;;;;;;23.73;94.56;100456.28;5008983;28;20080;-74
2021/07/26 09:28:53;;;;;;;7.57;5.85;;;;;;;23.77;95.19;100459.66;5010381;28;20059;-74
2021/07/26 09:31:18;;;;;;;9.93;5.90;;;;;;;23.63;95.00;100471.97;5011329;28;20467;-73
2021/07/26 09:33:44;;;;;;;9.38;5.65;;;;;;;23.68;95.48;100479.63;5008180;28;20490;-74
2021/07/26 09:36:23;;;;;;;11.63;6.18;;;;;;;23.60;96.27;100502.31;5008620;28;20084;-74
2021/07/26 09:38:48;;;;;;;11.75;5.70;;;;;;;23.00;97.37;100507.88;5008809;28;20406;-74
2021/07/26 09:41:14;;;;;;;9.95;6.18;;;;;;;22.99;99.60;100500.09;5009625;28;20041;-74
2021/07/26 09:43:41;;;;;;;11.63;6.72;;;;;;;23.00;100.00;100498.84;5005934;28;20039;-74
2021/07/26 09:46:07;;;;;;;10.48;6.57;;;;;;;23.03;99.11;100500.75;5008143;28;20030;-74
2021/07/26 09:48:32;;;;;;;10.13;6.65;;;;;;;22.92;99.18;100506.56;5008616;28;20385;-74
2021/07/26 09:51:00;;;;;;;13.25;6.90;;;;;;;22.70;100.00;100496.72;5029040;28;20061;-74
2021/07/26 09:53:27;;;;;;;8.48;6.20;;;;;;;22.68;100.00;100518.38;5027142;28;20576;-74
2021/07/26 09:55:57;;;;;;;14.30;6.72;;;;;;;22.40;100.00;100526.25;5011844;28;20041;-74
2021/07/26 09:58:36;;;;;;;12.43;6.57;;;;;;;22.21;100.00;100526.44;5013411;28;20053;-74
2021/07/26 10:01:03;;;;;;;8.88;6.40;;;;;;;21.99;100.00;100533.75;5013365;28;20041;-74
2021/07/26 10:03:29;;;;;;;10.10;6.18;;;;;;;22.13;100.00;100534.09;5013008;28;20073;-74
2021/07/26 10:05:54;;;;;;;11.20;6.72;;;;;;;22.32;100.00;100529.63;5012281;28;20478;-74
2021/07/26 10:08:21;;;;;;;9.20;6.45;;;;;;;22.39;100.00;100523.94;5012763;28;20202;-74
2021/07/26 10:10:47;;;;;;;12.18;6.53;;;;;;;22.52;100.00;100530.19;5013087;28;20567;-74
2021/07/26 10:13:13;;;;;;;16.50;7.15;;;;;;;22.62;100.00;100531.88;5013633;28;20034;-74
2021/07/26 10:15:39;;;;;;;18.15;7.35;;;;;;;22.70;100.00;100515.94;5011183;28;20069;-74
2021/07/26 10:18:06;;;;;;;13.65;6.45;;;;;;;22.66;100.00;100515.28;5013282;28;20065;-74
2021/07/26 10:20:39;;;;;;;9.35;6.55;;;;;;;22.67;100.00;100516.81;5012790;28;20490;-74
2021/07/26 10:23:15;;;;;;;16.88;7.55;;;;;;;22.73;100.00;100515.81;5028204;28;20398;-74
2021/07/26 10:25:52;;;;;;;16.85;6.97;;;;;;;22.63;100.00;100513.44;5027288;28;20115;-74
2021/07/26 10:28:27;;;;;;;9.48;6.57;;;;;;;22.62;100.00;100512.66;5003427;28;20042;-74
2021/07/26 10:30:53;;;;;;;10.35;6.63;;;;;;;22.87;100.00;100509.09;5025691;28;20128;-75
2021/07/26 10:33:18;;;;;;;17.02;6.72;;;;;;;23.08;100.00;100514.69;5012615;28;20065;-75
2021/07/26 10:35:48;;;;;;;7.47;6.38;;;;;;;23.45;100.00;100496.56;5010430;28;20034;-76
2021/07/26 10:38:13;;;;;;;9.38;6.97;;;;;;;23.70;100.00;100492.91;5011651;28;20116;-76
2021/07/26 10:40:41;;;;;;;7.75;5.30;;;;;;;23.77;99.00;100492.69;5012245;28;20117;-75
2021/07/26 10:43:12;;;;;;;8.40;5.43;;;;;;;23.67;98.67;100499.34;5011595;28;20541;-75
2021/07/26 10:45:50;;;;;;;9.70;5.97;;;;;;;23.79;98.91;100495.75;5011568;28;20034;-76
2021/07/26 10:48:21;;;;;;;11.25;5.32;;;;;;;23.93;100.00;100493.22;5012435;28;20038;-75
2021/07/26 10:50:48;;;;;;;7.95;5.40;;;;;;;24.24;100.00;100490.53;5012096;28;20075;-75
2021/07/26 10:53:32;;;;;;;7.68;5.30;;;;;;;24.50;100.00;100489.13;5012783;28;20068;-75
2021/07/26 10:56:08;;;;;;;7.60;5.18;;;;;;;24.75;100.00;100486.16;5011043;28;20034;-75
2021/07/26 10:58:40;;;;;;;5.97;4.75;;;;;;;24.85;96.81;100479.41;5012395;28;20092;-74
2021/07/26 11:01:21;;;;;;;5.53;4.10;;;;;;;24.84;94.55;100474.38;5026843;28;20045;-74
2021/07/26 11:03:47;;;;;;;;;;;;;;;24.72;94.90;100473.28;5012655;28;20171;-75
2021/07/26 11:06:35;;;;;;;5.57;4.53;;;;;;;25.09;96.53;100478.88;5011938;28;19914;-74
2021/07/26 11:09:19;;;;;;;5.15;3.80;;;;;;;25.25;89.71;100475.78;5012637;28;20033;-75
2021/07/26 11:11:49;;;;;;;6.80;4.47;;;;;;;25.69;92.96;100465.97;5011211;28;20398;-74